Terminal Aerodrome Forecast
Issued by NWS Cleveland, OH

Home | Current Version | Previous Version | Text Only | Print | Product List | Glossary Off
Versions: 1 2 3 4 5 6 7 8 9 10 11 12 13 14 15 16 17

000
FTUS41 KCLE 152300
TAFERI
TAF
KERI 152334Z 1600/1624 04012KT P6SM BKN200
     FM160200 12005KT P6SM OVC200
     FM161700 16012G20KT 6SM -SHRA BKN040 OVC100=

USA.gov is the U.S. government's official web portal to all federal, state and local government web resources and services.